Time;durP1;ratioP1;P1;durP2;ratioP2;P2;SDS_P1;SDS_P2;PMS_P1;PMS_P2;Temp;Humidity;BMP_temperature;BMP_pressure;BME280_temperature;BME280_humidity;BME280_pressure;Samples;Min_cycle;Max_cycle;Signal;HPM_P1;HPM_P2
2022/10/14 00:00:04;;;;;;;22.75;15.15;;;10.40;99.90;;;;;;5048035;28;20033;-85
2022/10/14 00:02:37;;;;;;;27.77;13.75;;;10.40;99.90;;;;;;5057580;28;20628;-86
2022/10/14 00:05:03;;;;;;;25.10;15.25;;;10.40;99.90;;;;;;5049870;28;20041;-85
2022/10/14 00:07:29;;;;;;;22.60;14.45;;;10.40;99.90;;;;;;5041470;28;20043;-85
2022/10/14 00:09:54;;;;;;;25.45;15.65;;;10.50;99.90;;;;;;5017799;28;20039;-85
2022/10/14 00:12:20;;;;;;;28.27;14.45;;;10.50;99.90;;;;;;5049082;28;20447;-85
2022/10/14 00:14:46;;;;;;;25.30;15.85;;;10.50;99.90;;;;;;5051183;28;20036;-86
2022/10/14 00:17:12;;;;;;;26.55;14.43;;;10.50;99.90;;;;;;5049738;28;20032;-86
2022/10/14 00:19:37;;;;;;;24.05;14.65;;;10.50;99.90;;;;;;5034615;28;20040;-84
2022/10/14 00:22:03;;;;;;;25.55;14.10;;;10.60;99.90;;;;;;5050913;28;20401;-85
2022/10/14 00:24:29;;;;;;;26.90;14.48;;;10.60;99.90;;;;;;5050865;28;20042;-84
2022/10/14 00:26:54;;;;;;;31.25;14.45;;;10.60;99.90;;;;;;5051474;28;20036;-85
2022/10/14 00:29:20;;;;;;;22.73;14.68;;;10.60;99.90;;;;;;5043193;28;20028;-85
2022/10/14 00:31:47;;;;;;;28.48;15.68;;;10.60;99.90;;;;;;5056757;28;20073;-85
2022/10/14 00:34:14;;;;;;;27.73;14.90;;;10.60;99.90;;;;;;5056635;28;20036;-85
2022/10/14 00:36:41;;;;;;;25.83;14.50;;;10.60;99.90;;;;;;5054303;28;20033;-85
2022/10/14 00:39:11;;;;;;;29.67;17.17;;;10.60;99.90;;;;;;5053718;28;20038;-85
2022/10/14 00:41:38;;;;;;;26.58;15.68;;;10.60;99.90;;;;;;5053254;28;20217;-85
2022/10/14 00:44:11;;;;;;;26.58;14.60;;;10.60;99.90;;;;;;5053063;28;20032;-85
2022/10/14 00:46:45;;;;;;;26.90;14.77;;;10.70;99.90;;;;;;5052745;28;20131;-85
2022/10/14 00:49:19;;;;;;;28.10;15.02;;;10.70;99.90;;;;;;5039161;28;20032;-85
2022/10/14 00:51:54;;;;;;;26.38;14.93;;;10.70;99.90;;;;;;5069402;28;20163;-85
2022/10/14 00:54:23;;;;;;;26.58;15.63;;;10.70;99.90;;;;;;5052909;28;20119;-85
2022/10/14 00:56:51;;;;;;;30.98;16.45;;;10.80;99.90;;;;;;5051024;28;20043;-85
2022/10/14 00:59:18;;;;;;;32.40;18.15;;;10.80;99.90;;;;;;5037164;28;20063;-86
2022/10/14 01:01:44;;;;;;;25.13;15.38;;;10.90;99.90;;;;;;5044043;28;20036;-85
2022/10/14 01:04:10;;;;;;;27.88;16.70;;;10.90;99.90;;;;;;5052388;28;20044;-85
2022/10/14 01:06:44;;;;;;;34.17;18.50;;;10.90;99.90;;;;;;5044092;28;20146;-85
2022/10/14 01:09:35;;;;;;;36.17;17.13;;;10.90;99.90;;;;;;5041173;28;20033;-85
2022/10/14 01:12:06;;;;;;;34.22;16.88;;;10.90;99.90;;;;;;5056035;28;20028;-86
2022/10/14 01:14:50;;;;;;;31.85;17.85;;;11.00;99.90;;;;;;5049609;28;20029;-86
2022/10/14 01:17:59;;;;;;;31.55;16.65;;;11.00;99.90;;;;;;5061290;28;20033;-85
2022/10/14 01:20:56;;;;;;;33.72;18.60;;;11.00;99.90;;;;;;5063572;28;20028;-86
2022/10/14 01:23:45;;;;;;;31.77;17.20;;;11.00;99.90;;;;;;5069006;28;20035;-85
2022/10/14 01:26:39;;;;;;;32.13;17.05;;;11.00;99.90;;;;;;5051829;28;20115;-85
2022/10/14 01:29:11;;;;;;;32.90;18.70;;;11.00;99.90;;;;;;5065956;28;20051;-85
2022/10/14 01:31:43;;;;;;;34.30;17.02;;;11.00;99.90;;;;;;5048464;28;20033;-85
2022/10/14 01:34:18;;;;;;;30.33;17.23;;;11.00;99.90;;;;;;5058242;28;20092;-85
2022/10/14 01:36:57;;;;;;;34.50;17.10;;;11.10;99.90;;;;;;5052910;28;20037;-86
2022/10/14 01:39:28;;;;;;;32.08;16.35;;;11.10;99.90;;;;;;5070524;28;20468;-85
2022/10/14 01:42:03;;;;;;;34.45;17.67;;;11.10;99.90;;;;;;5046984;28;20056;-86
2022/10/14 01:44:29;;;;;;;;;;;11.10;99.90;;;;;;5053461;28;20094;-85
2022/10/14 01:46:57;;;;;;;31.33;16.35;;;11.10;99.90;;;;;;5056085;28;19927;-86
2022/10/14 01:49:32;;;;;;;31.33;16.08;;;11.10;99.90;;;;;;5055967;28;20115;-86
2022/10/14 01:52:07;;;;;;;27.25;15.63;;;11.10;99.90;;;;;;5055364;28;20918;-86
2022/10/14 01:54:38;;;;;;;26.63;15.30;;;11.10;99.90;;;;;;5055846;28;20033;-87
2022/10/14 01:57:09;;;;;;;29.10;17.20;;;11.10;99.90;;;;;;5039369;28;20128;-86
2022/10/14 01:59:38;;;;;;;28.73;15.88;;;11.00;99.90;;;;;;5040255;28;20032;-87
2022/10/14 02:02:04;;;;;;;30.40;18.23;;;11.10;99.90;;;;;;5055095;28;20050;-87
2022/10/14 02:04:30;;;;;;;29.23;17.70;;;11.10;99.90;;;;;;5055324;28;20547;-86
2022/10/14 02:07:03;;;;;;;29.83;17.60;;;11.10;99.90;;;;;;5040304;28;20033;-86
2022/10/14 02:09:48;;;;;;;33.17;18.83;;;11.10;99.90;;;;;;5072183;28;20029;-87
2022/10/14 02:12:46;;;;;;;42.78;19.25;;;11.20;99.90;;;;;;5071794;28;20135;-86
2022/10/14 02:15:38;;;;;;;32.75;18.38;;;11.20;99.90;;;;;;5054616;28;20033;-87
2022/10/14 02:18:18;;;;;;;36.95;19.02;;;11.20;99.90;;;;;;5055146;28;20424;-87
2022/10/14 02:20:55;;;;;;;33.20;18.65;;;11.20;99.90;;;;;;5054877;28;20044;-86
2022/10/14 02:23:28;;;;;;;31.48;17.70;;;11.20;99.90;;;;;;5071589;28;20040;-87
2022/10/14 02:25:55;;;;;;;44.25;19.92;;;11.20;99.90;;;;;;5054778;28;20174;-87
2022/10/14 02:28:26;;;;;;;39.38;19.25;;;11.20;99.90;;;;;;5038829;28;20036;-87
2022/10/14 02:30:56;;;;;;;40.15;20.83;;;11.20;99.90;;;;;;5055006;28;20020;-87
2022/10/14 02:33:27;;;;;;;46.38;22.27;;;11.30;99.90;;;;;;5038864;28;20035;-86
2022/10/14 02:35:55;;;;;;;40.80;21.00;;;11.30;99.90;;;;;;5055493;28;20025;-86
2022/10/14 02:38:21;;;;;;;42.05;21.75;;;11.30;99.90;;;;;;5022198;28;20024;-87
2022/10/14 02:40:49;;;;;;;43.28;21.70;;;11.30;99.90;;;;;;5036544;28;20025;-87
2022/10/14 02:43:17;;;;;;;37.35;20.00;;;11.30;99.90;;;;;;5051469;28;20033;-87
2022/10/14 02:45:43;;;;;;;42.95;22.23;;;11.30;99.90;;;;;;5043987;28;20029;-86
2022/10/14 02:48:10;;;;;;;44.45;22.27;;;11.30;99.90;;;;;;5050815;28;20040;-86
2022/10/14 02:50:36;;;;;;;44.80;23.45;;;11.30;99.90;;;;;;5034147;28;20124;-86
2022/10/14 02:53:03;;;;;;;42.47;20.80;;;11.40;99.90;;;;;;5062664;28;20041;-87
2022/10/14 02:55:29;;;;;;;41.20;21.33;;;11.40;99.90;;;;;;5054168;28;20036;-86
2022/10/14 02:57:54;;;;;;;43.40;21.58;;;11.40;99.90;;;;;;5054493;28;20033;-87
2022/10/14 03:00:21;;;;;;;40.45;21.85;;;11.40;99.90;;;;;;5071790;28;20062;-86
2022/10/14 03:02:47;;;;;;;38.97;21.35;;;11.40;99.90;;;;;;5053880;28;20676;-86
2022/10/14 03:05:15;;;;;;;44.08;21.05;;;11.40;99.90;;;;;;5068934;28;20032;-86
2022/10/14 03:07:40;;;;;;;37.58;19.80;;;11.40;99.90;;;;;;5070685;28;20032;-86
2022/10/14 03:10:10;;;;;;;37.35;19.58;;;11.30;99.90;;;;;;5054626;28;20028;-86
2022/10/14 03:12:36;;;;;;;38.33;19.85;;;11.30;99.90;;;;;;5037502;28;20537;-86
2022/10/14 03:15:02;;;;;;;40.28;20.73;;;11.30;99.90;;;;;;5053842;28;20036;-86
2022/10/14 03:17:29;;;;;;;38.03;20.27;;;11.30;99.90;;;;;;5053911;28;20059;-88
2022/10/14 03:20:00;;;;;;;40.10;19.75;;;11.30;99.90;;;;;;5054764;28;20020;-87
2022/10/14 03:22:26;;;;;;;40.25;20.83;;;11.30;99.90;;;;;;5049334;28;20386;-86
2022/10/14 03:24:53;;;;;;;35.38;20.30;;;11.30;99.90;;;;;;5017862;28;20040;-87
2022/10/14 03:27:29;;;;;;;38.13;20.00;;;11.30;99.90;;;;;;5050841;28;20033;-86
2022/10/14 03:30:00;;;;;;;38.05;20.58;;;11.30;99.90;;;;;;5050822;28;20420;-86
2022/10/14 03:32:26;;;;;;;41.25;19.85;;;11.30;99.90;;;;;;5037349;28;20039;-86
2022/10/14 03:35:18;;;;;;;41.30;20.65;;;11.30;99.90;;;;;;5070297;28;20498;-86
2022/10/14 03:37:46;;;;;;;41.15;22.17;;;11.40;99.90;;;;;;5037875;28;20661;-86
2022/10/14 03:40:14;;;;;;;40.20;20.75;;;11.30;99.90;;;;;;5037530;28;20436;-86
2022/10/14 03:42:41;;;;;;;42.60;21.20;;;11.30;99.90;;;;;;5036775;28;20029;-87
2022/10/14 03:45:07;;;;;;;38.80;19.95;;;11.30;99.90;;;;;;5055132;28;20390;-87
2022/10/14 03:47:36;;;;;;;38.13;19.63;;;11.40;99.90;;;;;;5053890;28;20423;-86
2022/10/14 03:50:03;;;;;;;40.17;19.52;;;11.30;99.90;;;;;;5053232;28;20035;-86
2022/10/14 03:52:51;;;;;;;35.30;18.60;;;11.30;99.90;;;;;;5035278;28;20020;-86
2022/10/14 03:55:25;;;;;;;34.08;18.55;;;11.30;99.90;;;;;;5038821;28;20056;-87
2022/10/14 03:57:51;;;;;;;34.85;17.88;;;11.30;99.90;;;;;;5036920;28;20056;-87
2022/10/14 04:00:18;;;;;;;42.25;18.73;;;11.30;99.90;;;;;;5053285;28;20032;-86
2022/10/14 04:02:49;;;;;;;32.53;18.52;;;11.30;99.90;;;;;;5052939;28;20638;-87
2022/10/14 04:05:35;;;;;;;31.50;17.77;;;11.30;99.90;;;;;;5043988;28;20500;-86
2022/10/14 04:08:15;;;;;;;32.42;17.92;;;11.30;99.90;;;;;;5025936;28;20043;-86
2022/10/14 04:10:54;;;;;;;31.17;17.77;;;11.30;99.90;;;;;;5035611;28;20112;-86
2022/10/14 04:13:21;;;;;;;28.90;16.90;;;11.30;99.90;;;;;;5017102;28;20033;-86
2022/10/14 04:15:47;;;;;;;37.00;19.02;;;11.30;99.90;;;;;;5054602;28;20073;-87
2022/10/14 04:18:20;;;;;;;33.75;18.25;;;11.30;99.90;;;;;;5023401;28;20029;-86
2022/10/14 04:20:47;;;;;;;31.50;17.25;;;11.30;99.90;;;;;;5036421;28;20032;-86
2022/10/14 04:23:15;;;;;;;31.15;18.15;;;11.30;99.90;;;;;;5036954;28;20562;-87
2022/10/14 04:25:44;;;;;;;32.15;18.02;;;11.30;99.90;;;;;;5036981;28;20037;-88
2022/10/14 04:28:11;;;;;;;33.40;17.25;;;11.30;99.90;;;;;;5036546;28;20037;-87
2022/10/14 04:30:47;;;;;;;29.17;17.42;;;11.30;99.90;;;;;;5038807;28;20032;-86
2022/10/14 04:33:21;;;;;;;31.75;16.42;;;11.30;99.90;;;;;;5038280;28;20492;-86
2022/10/14 04:35:48;;;;;;;27.77;17.05;;;11.20;99.90;;;;;;5069129;28;20052;-86
2022/10/14 04:38:21;;;;;;;27.25;15.95;;;11.20;99.90;;;;;;5069383;28;20029;-86
2022/10/14 04:40:53;;;;;;;24.38;16.17;;;11.20;99.90;;;;;;5037655;28;20047;-86
2022/10/14 04:43:20;;;;;;;28.65;16.60;;;11.20;99.90;;;;;;5052009;28;20102;-86
2022/10/14 04:45:46;;;;;;;25.92;15.32;;;11.20;99.90;;;;;;5053920;28;20021;-86
2022/10/14 04:48:19;;;;;;;33.28;14.88;;;11.20;99.90;;;;;;5052885;28;20082;-87
2022/10/14 04:50:50;;;;;;;26.25;15.88;;;11.10;99.90;;;;;;5035473;28;20378;-87
2022/10/14 04:53:44;;;;;;;23.85;14.98;;;11.10;99.90;;;;;;5046148;28;20046;-87
2022/10/14 04:56:28;;;;;;;27.05;15.15;;;11.10;99.90;;;;;;5057066;28;20051;-86
2022/10/14 04:58:59;;;;;;;30.15;15.80;;;11.10;99.90;;;;;;5037266;28;20036;-87
2022/10/14 05:01:43;;;;;;;26.05;15.13;;;11.10;99.90;;;;;;5041342;28;20035;-86
2022/10/14 05:04:09;;;;;;;25.70;14.68;;;11.20;99.90;;;;;;5035573;28;20119;-86
2022/10/14 05:06:38;;;;;;;25.85;14.73;;;11.10;99.90;;;;;;5053580;28;20029;-86
2022/10/14 05:09:06;;;;;;;26.15;15.13;;;11.20;99.90;;;;;;5068853;28;20055;-87
2022/10/14 05:11:32;;;;;;;24.10;14.65;;;11.10;99.90;;;;;;5050912;28;20116;-87
2022/10/14 05:13:58;;;;;;;23.42;14.43;;;11.10;99.90;;;;;;5051631;28;20124;-86
2022/10/14 05:16:27;;;;;;;22.60;14.00;;;11.10;99.90;;;;;;5036294;28;20025;-86
2022/10/14 05:18:53;;;;;;;24.05;13.30;;;11.20;99.90;;;;;;5019454;28;20559;-86
2022/10/14 05:21:18;;;;;;;24.02;14.30;;;11.10;99.90;;;;;;5035614;28;20036;-86
2022/10/14 05:24:03;;;;;;;25.90;14.40;;;11.10;99.90;;;;;;5055146;28;20062;-86
2022/10/14 05:26:32;;;;;;;22.80;13.68;;;11.20;99.90;;;;;;5052224;28;20036;-88
2022/10/14 05:29:01;;;;;;;23.23;13.50;;;11.10;99.90;;;;;;5036604;28;20028;-86
2022/10/14 05:31:28;;;;;;;23.00;14.18;;;11.20;99.90;;;;;;5035728;28;20033;-86
2022/10/14 05:34:03;;;;;;;23.08;15.07;;;11.10;99.90;;;;;;5038200;28;20027;-86
2022/10/14 05:36:29;;;;;;;22.92;14.23;;;11.10;99.90;;;;;;5053313;28;20041;-86
2022/10/14 05:38:57;;;;;;;22.70;14.13;;;11.10;99.90;;;;;;5052150;28;20032;-87
2022/10/14 05:41:27;;;;;;;25.30;13.45;;;11.10;99.90;;;;;;5036858;28;20025;-87
2022/10/14 05:43:52;;;;;;;22.38;13.90;;;11.10;99.90;;;;;;5051587;28;20051;-86
2022/10/14 05:46:19;;;;;;;22.42;13.65;;;11.20;99.90;;;;;;5031509;28;20044;-87
2022/10/14 05:48:51;;;;;;;25.88;14.48;;;11.10;99.90;;;;;;5036751;28;20032;-86
2022/10/14 05:51:20;;;;;;;23.77;14.00;;;11.10;99.90;;;;;;5047664;28;20033;-87
2022/10/14 05:53:47;;;;;;;29.52;14.48;;;11.20;99.90;;;;;;5039871;28;20081;-87
2022/10/14 05:56:16;;;;;;;22.52;12.80;;;11.20;99.90;;;;;;5022462;28;20044;-87
2022/10/14 05:58:42;;;;;;;22.92;13.38;;;11.10;99.90;;;;;;5035796;28;20025;-86
2022/10/14 06:01:10;;;;;;;23.70;13.25;;;11.20;99.90;;;;;;5051604;28;20035;-86
2022/10/14 06:03:39;;;;;;;20.42;12.63;;;11.20;99.90;;;;;;5051605;28;20067;-86
2022/10/14 06:06:07;;;;;;;21.50;13.55;;;11.20;99.90;;;;;;5034955;28;20048;-86
2022/10/14 06:08:32;;;;;;;19.65;12.43;;;11.20;99.90;;;;;;5042001;28;20070;-87
2022/10/14 06:11:02;;;;;;;23.58;12.68;;;11.20;99.90;;;;;;5051079;28;20056;-86
2022/10/14 06:13:28;;;;;;;18.42;11.32;;;11.20;99.90;;;;;;5049064;28;20036;-86
2022/10/14 06:15:54;;;;;;;19.48;12.50;;;11.20;99.90;;;;;;5067513;28;20035;-87
2022/10/14 06:18:20;;;;;;;21.38;12.55;;;11.20;99.90;;;;;;5032497;28;20037;-87
2022/10/14 06:20:53;;;;;;;23.98;13.15;;;11.20;99.90;;;;;;5050974;28;20527;-86
2022/10/14 06:23:19;;;;;;;20.67;12.82;;;11.20;99.90;;;;;;5050899;28;20090;-87
2022/10/14 06:25:45;;;;;;;18.90;12.18;;;11.20;99.90;;;;;;5020856;28;20033;-87
2022/10/14 06:28:11;;;;;;;22.83;12.90;;;11.20;99.90;;;;;;5034910;28;20095;-86
2022/10/14 06:30:37;;;;;;;19.50;12.15;;;11.20;99.90;;;;;;5054216;28;20024;-86
2022/10/14 06:33:02;;;;;;;20.95;12.98;;;11.30;99.90;;;;;;5054347;28;20020;-87
2022/10/14 06:35:28;;;;;;;16.92;11.40;;;11.30;99.90;;;;;;5069688;28;20431;-87
2022/10/14 06:37:55;;;;;;;20.73;12.20;;;11.30;99.90;;;;;;5037531;28;20036;-87
2022/10/14 06:40:21;;;;;;;19.20;11.75;;;11.30;99.90;;;;;;5044883;28;20066;-87
2022/10/14 06:42:46;;;;;;;18.80;12.90;;;11.30;99.90;;;;;;5036320;28;20046;-86
2022/10/14 06:45:12;;;;;;;17.63;11.73;;;11.30;99.90;;;;;;5033950;28;20094;-86
2022/10/14 06:47:38;;;;;;;19.25;11.98;;;11.40;99.90;;;;;;5039263;28;20116;-86
2022/10/14 06:50:04;;;;;;;17.83;11.48;;;11.40;99.90;;;;;;5065054;28;20476;-86
2022/10/14 06:52:30;;;;;;;28.80;13.77;;;11.40;99.90;;;;;;5043293;28;20068;-86
2022/10/14 06:54:56;;;;;;;21.80;13.07;;;11.50;99.90;;;;;;5036713;28;20060;-85
2022/10/14 06:57:22;;;;;;;22.10;12.73;;;11.60;99.90;;;;;;5034454;28;20516;-86
2022/10/14 06:59:47;;;;;;;23.70;13.20;;;11.60;99.90;;;;;;5034262;28;20029;-86
2022/10/14 07:02:13;;;;;;;19.25;12.82;;;11.60;99.90;;;;;;5036279;28;20086;-86
2022/10/14 07:04:39;;;;;;;22.20;13.68;;;11.70;99.90;;;;;;5054137;28;20404;-86
2022/10/14 07:07:09;;;;;;;21.55;13.38;;;11.70;99.90;;;;;;5053243;28;20052;-86
2022/10/14 07:09:34;;;;;;;21.65;13.13;;;11.80;99.90;;;;;;5078659;28;20020;-85
2022/10/14 07:12:00;;;;;;;20.58;12.38;;;11.90;99.90;;;;;;5037415;28;20043;-84
2022/10/14 07:14:26;;;;;;;23.20;13.75;;;11.90;99.90;;;;;;5020671;28;20036;-85
2022/10/14 07:16:52;;;;;;;24.40;13.95;;;12.00;99.90;;;;;;5053748;28;20028;-84
2022/10/14 07:19:18;;;;;;;20.38;13.65;;;12.10;99.90;;;;;;5037533;28;20595;-85
2022/10/14 07:21:46;;;;;;;21.15;13.85;;;12.10;99.90;;;;;;5069077;28;20036;-85
2022/10/14 07:24:12;;;;;;;21.20;12.57;;;12.20;99.90;;;;;;5033685;28;20450;-85
2022/10/14 07:26:38;;;;;;;22.15;13.05;;;12.30;99.90;;;;;;5045815;28;20037;-86
2022/10/14 07:29:05;;;;;;;19.23;12.70;;;12.30;99.90;;;;;;5070595;28;20024;-85
2022/10/14 07:31:30;;;;;;;22.40;12.60;;;12.40;99.90;;;;;;5067542;28;20025;-87
2022/10/14 07:33:57;;;;;;;18.73;12.15;;;12.40;99.90;;;;;;5053822;28;20388;-87
2022/10/14 07:36:23;;;;;;;20.20;12.07;;;12.40;99.90;;;;;;5071006;28;20108;-86
2022/10/14 07:38:49;;;;;;;20.85;13.60;;;12.50;99.90;;;;;;5033787;28;20055;-86
2022/10/14 07:41:18;;;;;;;22.05;12.75;;;12.50;99.90;;;;;;5057116;28;20060;-87
2022/10/14 07:43:45;;;;;;;19.98;13.55;;;12.50;99.90;;;;;;5043493;28;20112;-86
2022/10/14 07:46:12;;;;;;;21.05;13.02;;;12.50;99.90;;;;;;5052765;28;20035;-86
2022/10/14 07:48:39;;;;;;;21.85;14.50;;;12.60;99.90;;;;;;5052984;28;20055;-86
2022/10/14 07:51:06;;;;;;;23.10;13.75;;;12.60;99.90;;;;;;5057083;28;20016;-86
2022/10/14 07:53:33;;;;;;;19.88;12.85;;;12.60;99.90;;;;;;5069049;28;20039;-86
2022/10/14 07:55:59;;;;;;;18.67;12.55;;;12.60;99.90;;;;;;5052531;28;20388;-87
2022/10/14 07:58:29;;;;;;;17.48;12.52;;;12.60;99.90;;;;;;5036359;28;20028;-87
2022/10/14 08:00:55;;;;;;;18.83;13.57;;;12.60;99.90;;;;;;5035474;28;20709;-86
2022/10/14 08:03:23;;;;;;;22.88;13.88;;;12.60;99.90;;;;;;5053907;28;20033;-86
2022/10/14 08:05:49;;;;;;;20.88;13.40;;;12.70;99.90;;;;;;5050664;28;20029;-86
2022/10/14 08:08:16;;;;;;;20.38;14.38;;;12.70;99.90;;;;;;5065528;28;20252;-86
2022/10/14 08:10:42;;;;;;;25.10;13.60;;;12.70;99.90;;;;;;5030064;28;20063;-86
2022/10/14 08:13:08;;;;;;;21.38;13.55;;;12.70;99.90;;;;;;5051768;28;20028;-86
2022/10/14 08:15:39;;;;;;;20.80;14.10;;;12.80;99.90;;;;;;5035800;28;20502;-87
2022/10/14 08:18:09;;;;;;;21.52;13.38;;;12.80;99.90;;;;;;5037155;28;20036;-86
2022/10/14 08:20:35;;;;;;;20.15;13.45;;;12.80;99.90;;;;;;5053505;28;20430;-86
2022/10/14 08:23:01;;;;;;;24.45;14.00;;;12.90;99.90;;;;;;5053047;28;20036;-86
2022/10/14 08:25:27;;;;;;;25.50;12.85;;;12.90;99.90;;;;;;5052742;28;20040;-86
2022/10/14 08:27:56;;;;;;;22.05;13.48;;;12.90;99.90;;;;;;5048330;28;20520;-87
2022/10/14 08:30:23;;;;;;;19.88;12.57;;;12.90;99.90;;;;;;5064580;28;20039;-86
2022/10/14 08:32:48;;;;;;;18.55;13.20;;;12.90;99.90;;;;;;5068663;28;20036;-85
2022/10/14 08:35:14;;;;;;;18.20;12.65;;;12.80;99.90;;;;;;5052086;28;20025;-87
2022/10/14 08:37:40;;;;;;;19.38;12.32;;;12.70;99.90;;;;;;5020274;28;20049;-86
2022/10/14 08:40:07;;;;;;;18.13;11.35;;;12.70;99.90;;;;;;5050159;28;20212;-86
2022/10/14 08:42:35;;;;;;;19.00;12.80;;;12.70;99.90;;;;;;5052740;28;20416;-86
2022/10/14 08:45:23;;;;;;;23.63;13.32;;;12.70;99.90;;;;;;5054957;28;20115;-87
2022/10/14 08:47:54;;;;;;;18.20;12.65;;;12.70;99.90;;;;;;5070794;28;20033;-87
2022/10/14 08:50:28;;;;;;;18.25;12.20;;;12.70;99.90;;;;;;5048677;28;20033;-86
2022/10/14 08:53:15;;;;;;;19.00;12.95;;;12.70;99.90;;;;;;5051352;28;20115;-87
2022/10/14 08:55:51;;;;;;;17.92;12.20;;;12.80;99.90;;;;;;5050801;28;20481;-90
2022/10/14 08:58:37;;;;;;;17.60;11.65;;;12.80;99.90;;;;;;5047758;28;20039;-87
2022/10/14 09:01:30;;;;;;;20.52;13.32;;;12.90;99.90;;;;;;5047693;28;20191;-87
2022/10/14 09:03:58;;;;;;;17.30;12.30;;;13.00;99.90;;;;;;5053379;28;20476;-87
2022/10/14 09:06:30;;;;;;;21.02;13.20;;;13.00;99.90;;;;;;5054221;28;20130;-85
2022/10/14 09:09:05;;;;;;;20.63;12.45;;;13.10;99.90;;;;;;5055735;28;20025;-86
2022/10/14 09:11:39;;;;;;;19.90;12.80;;;13.10;99.90;;;;;;5052878;28;20057;-85
2022/10/14 09:14:08;;;;;;;20.85;13.02;;;13.20;99.90;;;;;;5052673;28;20033;-85
2022/10/14 09:16:37;;;;;;;17.85;12.18;;;13.30;99.90;;;;;;5053230;28;20025;-86
2022/10/14 09:19:35;;;;;;;18.90;11.20;;;13.30;99.90;;;;;;5051674;28;20469;-86
2022/10/14 09:22:02;;;;;;;17.98;12.15;;;13.40;99.90;;;;;;5063784;28;20040;-86
2022/10/14 09:24:34;;;;;;;17.98;11.82;;;13.40;99.90;;;;;;5052011;28;20482;-86
2022/10/14 09:27:14;;;;;;;21.50;12.05;;;13.40;99.90;;;;;;5051426;28;20073;-86
2022/10/14 09:29:59;;;;;;;19.13;11.40;;;13.40;99.90;;;;;;5035186;28;20111;-85
2022/10/14 09:32:48;;;;;;;17.10;11.40;;;13.40;99.90;;;;;;5052198;28;20029;-86
2022/10/14 09:35:19;;;;;;;19.50;12.27;;;13.50;99.90;;;;;;5052666;28;20036;-86
2022/10/14 09:37:44;;;;;;;18.35;11.27;;;13.50;99.90;;;;;;5052205;28;20090;-86
2022/10/14 09:40:43;;;;;;;16.80;10.88;;;13.50;99.90;;;;;;5018276;28;20481;-87
2022/10/14 09:43:09;;;;;;;17.73;10.48;;;13.60;99.90;;;;;;5046349;28;20037;-85
2022/10/14 09:45:57;;;;;;;17.52;11.38;;;13.70;99.90;;;;;;5051683;28;20025;-86
2022/10/14 09:48:51;;;;;;;16.92;11.30;;;13.80;99.90;;;;;;5035276;28;20039;-86
2022/10/14 09:51:34;;;;;;;16.50;9.55;;;13.80;99.90;;;;;;5026449;28;20048;-86
2022/10/14 09:54:02;;;;;;;14.35;9.85;;;13.80;99.90;;;;;;5038657;28;20032;-86
2022/10/14 09:56:36;;;;;;;16.70;10.20;;;13.90;99.90;;;;;;5050480;28;20048;-86
2022/10/14 09:59:04;;;;;;;14.57;9.82;;;13.90;99.90;;;;;;5067767;28;20032;-85
2022/10/14 10:01:47;;;;;;;17.30;10.60;;;14.00;99.90;;;;;;5051258;28;20032;-85
2022/10/14 10:04:35;;;;;;;14.77;10.10;;;14.00;99.90;;;;;;5036788;28;20124;-86
2022/10/14 10:07:05;;;;;;;16.15;9.88;;;13.90;99.90;;;;;;5053562;28;20028;-86
2022/10/14 10:09:31;;;;;;;16.98;11.10;;;14.00;99.90;;;;;;5038077;28;20037;-85
2022/10/14 10:11:57;;;;;;;16.08;11.23;;;14.00;99.90;;;;;;5050804;28;20137;-85
2022/10/14 10:14:29;;;;;;;17.58;11.15;;;13.90;99.90;;;;;;5045952;28;20116;-86
2022/10/14 10:17:07;;;;;;;17.60;10.32;;;13.90;99.90;;;;;;5049464;28;20033;-86
2022/10/14 10:19:35;;;;;;;14.52;10.55;;;13.90;99.90;;;;;;5071217;28;20059;-85
2022/10/14 10:22:21;;;;;;;18.33;10.32;;;14.00;99.90;;;;;;5045881;28;20527;-85
2022/10/14 10:24:49;;;;;;;19.90;10.40;;;14.00;99.90;;;;;;5042298;28;20051;-85
2022/10/14 10:27:36;;;;;;;14.32;9.73;;;14.00;99.90;;;;;;5041046;28;20043;-86
2022/10/14 10:30:42;;;;;;;17.00;9.77;;;14.00;99.90;;;;;;5066157;28;20385;-85
2022/10/14 10:33:20;;;;;;;13.95;10.00;;;14.00;99.90;;;;;;5059944;28;20036;-86
2022/10/14 10:36:21;;;;;;;12.60;8.38;;;14.00;99.90;;;;;;5053214;28;20024;-84
2022/10/14 10:38:58;;;;;;;15.52;9.02;;;14.00;99.90;;;;;;5082800;28;20074;-85
2022/10/14 10:41:41;;;;;;;15.95;9.45;;;14.00;99.90;;;;;;5066116;28;20488;-85
2022/10/14 10:44:42;;;;;;;13.02;8.85;;;14.00;99.90;;;;;;5073244;28;20040;-85
2022/10/14 10:47:23;;;;;;;12.90;8.55;;;14.10;99.90;;;;;;5033894;28;20041;-85
2022/10/14 10:50:15;;;;;;;13.65;9.02;;;14.10;99.90;;;;;;5070166;28;20033;-85
2022/10/14 10:53:03;;;;;;;12.52;8.68;;;14.10;99.90;;;;;;5050357;28;20496;-85
2022/10/14 10:55:53;;;;;;;15.82;9.00;;;14.20;99.90;;;;;;5058669;28;20104;-85
2022/10/14 10:58:39;;;;;;;13.27;9.02;;;14.30;99.90;;;;;;5070790;28;20039;-84
2022/10/14 11:01:47;;;;;;;13.43;8.88;;;14.30;99.90;;;;;;5069901;28;20508;-84
2022/10/14 11:04:19;;;;;;;14.50;8.38;;;14.30;99.90;;;;;;5070035;28;20115;-85
2022/10/14 11:12:46;;;;;;;15.50;9.40;;;14.20;99.90;;;;;;5059300;28;20116;-85
2022/10/14 11:15:40;;;;;;;12.88;8.88;;;14.20;99.90;;;;;;5065327;28;20074;-85
2022/10/14 11:18:31;;;;;;;12.43;8.95;;;14.20;99.90;;;;;;5064374;28;20531;-86
2022/10/14 11:21:16;;;;;;;14.43;9.20;;;14.20;99.90;;;;;;5052914;28;20115;-84
2022/10/14 11:24:00;;;;;;;14.80;8.80;;;14.20;99.90;;;;;;5062499;28;20672;-84
2022/10/14 11:26:45;;;;;;;15.40;8.93;;;14.20;99.90;;;;;;5070252;28;20029;-86
2022/10/14 11:29:30;;;;;;;12.88;8.30;;;14.20;99.90;;;;;;5067206;28;20025;-84
2022/10/14 11:32:08;;;;;;;11.55;8.10;;;14.20;99.90;;;;;;5064850;28;20098;-86
2022/10/14 11:34:46;;;;;;;13.20;9.07;;;14.20;99.90;;;;;;5068105;28;20232;-86
2022/10/14 11:37:15;;;;;;;12.35;8.23;;;14.30;99.90;;;;;;5067760;28;20025;-86
2022/10/14 11:39:53;;;;;;;13.30;8.07;;;14.40;99.90;;;;;;5070374;28;20032;-84
2022/10/14 11:42:37;;;;;;;16.42;7.93;;;14.50;99.90;;;;;;5049998;28;20028;-85
2022/10/14 11:45:15;;;;;;;11.43;7.80;;;14.70;99.90;;;;;;5047503;28;20052;-85
2022/10/14 11:47:46;;;;;;;11.48;8.00;;;14.70;99.90;;;;;;5051387;28;20024;-84
2022/10/14 11:50:30;;;;;;;10.52;7.70;;;14.80;99.90;;;;;;5049029;28;20064;-85
2022/10/14 11:53:21;;;;;;;8.68;6.63;;;14.90;99.90;;;;;;5066263;28;20020;-85
2022/10/14 11:55:59;;;;;;;9.15;6.70;;;14.90;99.90;;;;;;5044367;28;20055;-85
2022/10/14 11:58:29;;;;;;;10.38;6.70;;;15.00;99.90;;;;;;5048446;28;20033;-86
2022/10/14 12:01:13;;;;;;;9.30;6.78;;;15.00;99.90;;;;;;5014053;28;20059;-85
2022/10/14 12:04:11;;;;;;;9.52;6.82;;;14.90;99.90;;;;;;5065194;28;20481;-85
2022/10/14 12:06:50;;;;;;;11.15;6.82;;;14.90;99.90;;;;;;5051843;28;20040;-85
2022/10/14 12:09:22;;;;;;;9.65;6.22;;;14.90;99.90;;;;;;5069812;28;20052;-84
2022/10/14 12:11:55;;;;;;;12.20;6.35;;;14.90;99.90;;;;;;5052988;28;20051;-85
2022/10/14 12:14:24;;;;;;;8.10;5.60;;;15.00;99.90;;;;;;5068918;28;20021;-86
2022/10/14 12:16:51;;;;;;;7.60;4.95;;;15.00;99.90;;;;;;5065312;28;20024;-85
2022/10/14 12:19:25;;;;;;;6.05;4.40;;;15.10;99.90;;;;;;5041272;28;20036;-85
2022/10/14 12:22:07;;;;;;;6.45;3.80;;;15.10;99.90;;;;;;5069112;28;20056;-84
2022/10/14 12:24:39;;;;;;;6.53;4.00;;;15.20;99.90;;;;;;5058590;28;20080;-83
2022/10/14 12:27:11;;;;;;;6.35;4.10;;;15.20;99.90;;;;;;5062231;28;20051;-85
2022/10/14 12:29:41;;;;;;;7.10;4.18;;;15.30;99.90;;;;;;5060834;28;20033;-86
2022/10/14 12:32:18;;;;;;;8.30;3.85;;;15.30;99.90;;;;;;5081593;28;20070;-85
2022/10/14 12:34:52;;;;;;;4.93;3.60;;;15.40;99.90;;;;;;5061896;28;20021;-85
2022/10/14 12:37:33;;;;;;;5.13;3.60;;;15.40;99.90;;;;;;5062890;28;20439;-85
2022/10/14 12:40:02;;;;;;;12.07;5.75;;;15.50;99.90;;;;;;5087411;28;20028;-85
2022/10/14 12:42:50;;;;;;;6.93;4.78;;;15.60;99.90;;;;;;5068605;28;20036;-85
2022/10/14 12:45:20;;;;;;;7.90;4.82;;;15.60;99.90;;;;;;5034924;28;20096;-85
2022/10/14 12:47:56;;;;;;;8.20;5.05;;;15.60;99.90;;;;;;5049916;28;20043;-84
2022/10/14 12:50:33;;;;;;;10.40;4.50;;;15.60;99.90;;;;;;5050484;28;20878;-86
2022/10/14 12:53:05;;;;;;;5.15;4.15;;;15.50;99.90;;;;;;5052378;28;20025;-85
2022/10/14 12:55:47;;;;;;;6.00;4.07;;;15.50;99.90;;;;;;5065363;28;20516;-86
2022/10/14 12:58:24;;;;;;;6.90;3.50;;;15.60;99.90;;;;;;5066511;28;20028;-84
2022/10/14 13:01:02;;;;;;;4.05;3.65;;;15.60;99.90;;;;;;5054264;28;20024;-85
2022/10/14 13:03:39;;;;;;;4.93;3.17;;;15.70;99.90;;;;;;5022104;28;20041;-85